Friday, December 14, 2018, 7:11 PM EST
Back to Local

KPYM, Plymouth Municipal Airport

Location: Carver, MA, United States Lat: 41.9
Local Time: 7:11 PM EST ( 0:11 GMT) Lon: -70.733
Time Zone: US/Eastern Elev: 147 ft

Show me the last for .
Show Decoded

2018-12-14 18:52 METAR KPYM 142352Z AUTO 18003KT 10SM OVC010 05/03 A3036 RMK AO2 SLP281 T00500028
                 10078 20044 58015 =
2018-12-14 17:52 METAR KPYM 142252Z AUTO 21003KT 10SM OVC013 05/02 A3039 RMK AO2 SLP294 T00500022
                 =
2018-12-14 17:27 METAR KPYM 142227Z AUTO 21003KT 10SM OVC014 05/02 A3040 RMK AO2 T00500022 =
2018-12-14 16:52 METAR KPYM 142152Z AUTO 15003KT 10SM OVC016 06/02 A3040 RMK AO2 SLP296 T00560022
                 =
2018-12-14 15:52 METAR KPYM 142052Z AUTO 00000KT 10SM BKN017 06/02 A3040 RMK AO2 SLP297 T00560017
                 56013 =
2018-12-14 15:29 METAR KPYM 142029Z AUTO 18004KT 10SM BKN019 BKN060 06/02 A3041 RMK AO2 T00610017
                 =
2018-12-14 14:52 METAR KPYM 141952Z AUTO 18003KT 10SM CLR 07/02 A3040 RMK AO2 SLP297 T00670017 =
2018-12-14 13:52 METAR KPYM 141852Z AUTO 18006KT 10SM CLR 07/01 A3042 RMK AO2 SLP304 T00720006 =
2018-12-14 12:52 METAR KPYM 141752Z AUTO VRB05KT 10SM CLR 07/M01 A3044 RMK AO2 SLP310 T00721006
                 10078 21072 56032 =
2018-12-14 11:52 METAR KPYM 141652Z AUTO 22008KT 10SM CLR 07/00 A3047 RMK AO2 SLP318 T00720000 =
2018-12-14 10:52 METAR KPYM 141552Z AUTO 19007KT 10SM CLR 06/M01 A3050 RMK AO2 SLP330 T00611011 =
2018-12-14 09:52 METAR KPYM 141452Z AUTO VRB03KT 10SM CLR 04/M01 A3054 RMK AO2 SLP342 T00441006
                 53003 =
2018-12-14 08:52 METAR KPYM 141352Z AUTO 00000KT 10SM CLR 02/M01 A3053 RMK AO2 SLP341 T00221011 =
2018-12-14 07:52 METAR KPYM 141252Z AUTO 11003KT 10SM CLR M04/M07 A3053 RMK AO2 SLP339 T10441067
                 =
2018-12-14 06:52 METAR KPYM 141152Z AUTO 10003KT 10SM CLR M06/M08 A3053 RMK AO2 SLP339 I1000
                 I6000 T10611083 11033 21067 56004 =
2018-12-14 05:52 METAR KPYM 141052Z AUTO 00000KT 10SM CLR M07/M09 A3053 RMK AO2 SLP341 I1000
                 T10671089 =
2018-12-14 04:52 METAR KPYM 140952Z AUTO 10003KT 10SM CLR M06/M08 A3051 RMK AO2 SLP335 I1000
                 T10611078 =
2018-12-14 03:52 METAR KPYM 140852Z AUTO 00000KT 10SM CLR M06/M08 A3054 RMK AO2 SLP343 I1000
                 I3000 T10561083 58008 =
2018-12-14 02:52 METAR KPYM 140752Z AUTO 00000KT 10SM CLR M05/M08 A3055 RMK AO2 SLP348 I1000
                 T10501078 =
2018-12-14 01:52 METAR KPYM 140652Z AUTO 00000KT 10SM CLR M05/M07 A3056 RMK AO2 SLP351 I1000
                 T10501072 =
2018-12-14 00:52 METAR KPYM 140552Z AUTO 00000KT 10SM CLR M03/M06 A3056 RMK AO2 SLP351 T10331061
                 11011 21044 55001 =
2018-12-13 23:52 METAR KPYM 140452Z AUTO 00000KT 10SM CLR M03/M06 A3055 RMK AO2 SLP347 T10281056
                 400221078 =
2018-12-13 22:52 METAR KPYM 140352Z AUTO 12003KT 10SM OVC070 M02/M05 A3055 RMK AO2 SLP347
                 T10171050 =
2018-12-13 21:52 METAR KPYM 140252Z AUTO 00000KT 10SM FEW055 OVC070 M02/M06 A3057 RMK AO2 SLP352
                 T10221056 53001 =
2018-12-13 20:52 METAR KPYM 140152Z AUTO 00000KT 10SM SCT060 OVC075 M03/M06 A3056 RMK AO2 SLP351
                 T10331061 =
2018-12-13 19:52 METAR KPYM 140052Z AUTO 00000KT 10SM OVC075 M02/M06 A3056 RMK AO2 SLP349
                 T10221061 =

Support USWX by starting your Amazon purchase here.